Aviation Digital Data Service (ADDS)

Output produced by METARs form (1401 UTC 20 October 2021)
found at http://www.aviationweather.gov/metar/data/
 
Forecast for: RJOA (NEW HIROSHIMA , JP)
Text: TAF RJOA 201106Z 2012/2118 32005KT 9999 FEW025
Forecast period: 1200 to 2100 UTC 20 October 2021
Forecast type: FROM: standard forecast or significant change
Winds: from the NW (320 degrees) at 6 MPH (5 knots; 2.6 m/s)
Visibility: 6 or more miles (10+ km)
Ceiling: at least 12,000 feet AGL
Clouds: few clouds at 2500 feet AGL
Weather: no significant weather forecast for this period
Text: BECMG 2021/2023 07008KT
Forecast period: 2100 UTC 20 October 2021 to 1800 UTC 21 October 2021
Forecast type: BECOMING: Conditions expected to become as follows by 2300 UTC 20 October 2021
Winds: from the ENE (70 degrees) at 9 MPH (8 knots; 4.1 m/s)
Visibility: 6 or more miles (10+ km)
Ceiling: at least 12,000 feet AGL
Clouds: few clouds at 2500 feet AGL
Weather: no significant weather forecast for this period